Time;durP1;ratioP1;P1;durP2;ratioP2;P2;SDS_P1;SDS_P2;PMS_P1;PMS_P2;Temp;Humidity;BMP_temperature;BMP_pressure;BME280_temperature;BME280_humidity;BME280_pressure;Samples;Min_cycle;Max_cycle;Signal;HPM_P1;HPM_P2
2024/04/22 00:00:25;;;;;;;2.72;1.50;;;;;;;7.84;100.00;100019.28;5425647;26;20028;-71
2024/04/22 00:02:51;;;;;;;2.15;1.50;;;;;;;7.84;100.00;100026.09;5428932;26;20003;-75
2024/04/22 00:05:16;;;;;;;3.00;2.28;;;;;;;7.81;100.00;100029.41;5430471;26;19999;-73
2024/04/22 00:07:42;;;;;;;2.00;1.35;;;;;;;7.73;100.00;100025.66;5438217;26;20075;-74
2024/04/22 00:10:07;;;;;;;2.40;1.30;;;;;;;7.66;100.00;100031.38;5425682;26;19999;-74
2024/04/22 00:12:33;;;;;;;2.83;1.50;;;;;;;7.75;100.00;100042.00;5435545;26;20002;-73
2024/04/22 00:14:58;;;;;;;1.95;1.40;;;;;;;7.73;100.00;100044.53;5420558;26;19999;-75
2024/04/22 00:17:24;;;;;;;1.85;1.35;;;;;;;7.64;100.00;100035.56;5439565;26;19999;-74
2024/04/22 00:19:53;;;;;;;1.65;1.20;;;;;;;7.63;100.00;100044.06;5441705;26;20465;-73
2024/04/22 00:22:19;;;;;;;2.97;1.48;;;;;;;7.59;100.00;100038.81;5445386;26;19991;-71
2024/04/22 00:24:45;;;;;;;2.10;1.50;;;;;;;7.69;100.00;100044.31;5425440;26;20326;-72
2024/04/22 00:27:10;;;;;;;1.45;1.20;;;;;;;7.76;100.00;100048.91;5425050;26;19995;-76
2024/04/22 00:29:36;;;;;;;1.75;1.40;;;;;;;7.65;100.00;100039.88;5432331;26;20007;-75
2024/04/22 00:32:02;;;;;;;1.85;1.23;;;;;;;7.74;100.00;100056.56;5422294;26;20520;-74
2024/04/22 00:34:27;;;;;;;1.75;1.40;;;;;;;7.83;100.00;100063.78;5434344;26;20070;-75
2024/04/22 00:36:53;;;;;;;2.90;1.73;;;;;;;7.47;100.00;100020.31;5447334;26;20011;-75
2024/04/22 00:39:18;;;;;;;1.65;1.33;;;;;;;7.67;100.00;100061.38;5433925;26;20004;-74
2024/04/22 00:41:44;;;;;;;2.70;1.40;;;;;;;7.51;100.00;100067.56;5435580;26;20004;-74
2024/04/22 00:44:09;;;;;;;3.97;1.50;;;;;;;7.63;100.00;100105.72;5414902;26;19999;-74
2024/04/22 00:46:36;;;;;;;2.95;1.55;;;;;;;7.65;100.00;100106.69;5433203;26;20494;-72
2024/04/22 00:49:02;;;;;;;2.10;1.42;;;;;;;7.65;100.00;100111.81;5431632;26;20009;-77
2024/04/22 00:51:28;;;;;;;2.35;1.63;;;;;;;7.50;100.00;100106.91;5408947;26;19995;-76
2024/04/22 00:53:54;;;;;;;2.50;1.60;;;;;;;7.40;100.00;100100.47;5427191;26;20449;-79
2024/04/22 00:56:20;;;;;;;1.60;1.45;;;;;;;7.21;100.00;100086.81;5432412;26;20430;-71
2024/04/22 00:58:48;;;;;;;2.67;1.80;;;;;;;7.24;100.00;100099.81;5422296;26;20003;-72
2024/04/22 01:01:17;;;;;;;2.22;1.50;;;;;;;7.18;100.00;100109.81;5427922;26;20831;-72
2024/04/22 01:03:43;;;;;;;3.90;1.57;;;;;;;7.13;100.00;100093.31;5438533;26;20010;-72
2024/04/22 01:06:08;;;;;;;3.58;1.55;;;;;;;6.99;100.00;100084.13;5430642;26;20004;-73
2024/04/22 01:08:34;;;;;;;1.75;1.38;;;;;;;7.00;100.00;100099.56;5421540;26;20006;-72
2024/04/22 01:10:59;;;;;;;2.53;1.70;;;;;;;6.87;100.00;100092.16;5423094;26;20032;-75
2024/04/22 01:13:25;;;;;;;2.17;1.80;;;;;;;7.02;100.00;100115.06;5429647;26;20004;-72
2024/04/22 01:15:51;;;;;;;2.25;1.70;;;;;;;6.92;100.00;100101.81;5428968;26;20010;-75
2024/04/22 01:18:17;;;;;;;2.60;1.40;;;;;;;7.01;100.00;100128.72;5429464;26;20003;-75
2024/04/22 01:20:43;;;;;;;2.95;2.10;;;;;;;6.98;100.00;100119.19;5422671;26;20009;-75
2024/04/22 01:23:09;;;;;;;2.63;1.70;;;;;;;6.90;100.00;100131.66;5443194;26;19999;-74
2024/04/22 01:25:37;;;;;;;2.58;2.00;;;;;;;6.61;100.00;100079.00;5449227;26;20003;-78
2024/04/22 01:28:04;;;;;;;2.47;2.15;;;;;;;6.83;100.00;100115.88;5410614;26;20008;-74
2024/04/22 01:30:30;;;;;;;2.55;1.70;;;;;;;6.95;100.00;100139.56;5431934;26;20006;-78
2024/04/22 01:32:56;;;;;;;2.67;1.75;;;;;;;6.80;100.00;100137.16;5436160;26;20000;-74
2024/04/22 01:35:21;;;;;;;3.05;1.80;;;;;;;6.91;100.00;100129.97;5418514;26;20018;-74
2024/04/22 01:37:47;;;;;;;2.42;1.70;;;;;;;6.86;100.00;100132.31;5422434;26;20632;-77
2024/04/22 01:40:12;;;;;;;3.47;2.00;;;;;;;6.81;100.00;100138.91;5436143;26;20003;-77
2024/04/22 01:42:38;;;;;;;3.22;2.08;;;;;;;6.69;100.00;100107.56;5429565;26;20428;-73
2024/04/22 01:45:08;;;;;;;2.90;1.98;;;;;;;6.35;100.00;100054.69;5450348;26;19995;-74
2024/04/22 01:47:33;;;;;;;;;;;;;;;6.88;100.00;100156.38;5424196;26;20012;-75
2024/04/22 01:49:59;;;;;;;3.50;2.08;;;;;;;6.93;100.00;100144.63;5437096;26;19994;-75
2024/04/22 01:52:24;;;;;;;2.42;1.73;;;;;;;6.85;100.00;100156.22;5428905;26;20015;-74
2024/04/22 01:54:50;;;;;;;4.00;2.20;;;;;;;6.91;100.00;100169.31;5441339;26;19998;-77
2024/04/22 01:57:15;;;;;;;4.72;2.08;;;;;;;6.88;100.00;100176.00;5427483;26;20003;-73
2024/04/22 01:59:41;;;;;;;5.20;2.10;;;;;;;6.96;100.00;100178.13;5432194;26;19999;-76
2024/04/22 02:02:06;;;;;;;2.28;1.55;;;;;;;6.92;100.00;100188.19;5432321;26;19995;-77
2024/04/22 02:04:32;;;;;;;2.47;1.85;;;;;;;6.90;100.00;100182.09;5437379;26;20011;-74
2024/04/22 02:06:59;;;;;;;3.13;1.60;;;;;;;6.72;100.00;100154.75;5427768;26;20072;-72
2024/04/22 02:09:24;;;;;;;2.78;2.08;;;;;;;6.90;100.00;100170.16;5448268;26;20615;-72
2024/04/22 02:11:50;;;;;;;2.70;2.00;;;;;;;7.00;100.00;100197.09;5432652;26;20025;-74
2024/04/22 02:14:16;;;;;;;2.58;2.05;;;;;;;7.02;100.00;100189.50;5440909;26;20444;-76
2024/04/22 02:16:41;;;;;;;2.92;2.15;;;;;;;6.98;100.00;100206.44;5431184;26;20003;-74
2024/04/22 02:19:07;;;;;;;3.20;2.13;;;;;;;7.05;100.00;100220.44;5430613;26;19998;-74
2024/04/22 02:21:32;;;;;;;4.97;2.00;;;;;;;7.00;100.00;100227.03;5427544;26;20063;-73
2024/04/22 02:23:58;;;;;;;3.08;2.20;;;;;;;6.98;100.00;100221.84;5435290;26;19995;-73
2024/04/22 02:26:23;;;;;;;3.70;2.42;;;;;;;6.95;100.00;100211.41;5434274;26;20000;-74
2024/04/22 02:28:50;;;;;;;3.47;2.10;;;;;;;6.93;100.00;100215.63;5436417;26;19999;-74
2024/04/22 02:31:16;;;;;;;3.90;2.38;;;;;;;6.73;100.00;100187.31;5398494;26;20003;-73
2024/04/22 02:33:42;;;;;;;2.97;2.17;;;;;;;7.01;100.00;100233.94;5385601;26;20008;-73
2024/04/22 02:36:07;;;;;;;3.38;2.30;;;;;;;6.91;100.00;100230.06;5390512;26;19997;-75
2024/04/22 02:38:33;;;;;;;2.85;2.20;;;;;;;6.94;100.00;100233.66;5391794;26;20010;-73
2024/04/22 02:40:58;;;;;;;3.83;2.83;;;;;;;6.95;100.00;100242.22;5393642;26;20010;-72
2024/04/22 02:43:24;;;;;;;4.13;2.35;;;;;;;6.68;100.00;100208.41;5388325;26;19996;-72
2024/04/22 02:45:49;;;;;;;3.00;2.10;;;;;;;6.88;100.00;100233.34;5396936;26;20584;-74
2024/04/22 02:48:14;;;;;;;3.22;2.22;;;;;;;6.83;100.00;100214.28;5386221;26;20000;-72
2024/04/22 02:50:40;;;;;;;3.60;2.42;;;;;;;6.84;100.00;100239.16;5393052;26;20015;-72
2024/04/22 02:53:05;;;;;;;4.40;2.58;;;;;;;6.70;100.00;100230.75;5393234;26;20042;-73
2024/04/22 02:55:31;;;;;;;3.95;2.65;;;;;;;6.76;100.00;100241.31;5386359;26;20012;-73
2024/04/22 02:57:57;;;;;;;6.07;3.50;;;;;;;6.68;100.00;100232.41;5339950;26;20054;-79
2024/04/22 03:00:23;;;;;;;3.80;2.50;;;;;;;6.72;100.00;100241.13;5351624;26;20004;-77
2024/04/22 03:02:49;;;;;;;4.30;3.00;;;;;;;6.58;100.00;100243.88;5426866;26;20453;-73
2024/04/22 03:05:14;;;;;;;4.22;2.58;;;;;;;6.46;100.00;100249.28;5434317;26;19999;-74
2024/04/22 03:07:40;;;;;;;4.18;2.58;;;;;;;6.06;100.00;100201.13;5435851;26;20074;-75
2024/04/22 03:10:06;;;;;;;4.13;2.80;;;;;;;6.29;100.00;100251.00;5436516;26;20010;-75
2024/04/22 03:12:32;;;;;;;4.10;2.67;;;;;;;6.27;100.00;100252.59;5420609;26;20003;-74
2024/04/22 03:14:59;;;;;;;3.85;2.35;;;;;;;6.25;100.00;100258.47;5431356;26;20010;-75
2024/04/22 03:17:26;;;;;;;4.40;2.70;;;;;;;6.36;100.00;100267.56;5401444;26;19995;-73
2024/04/22 03:19:52;;;;;;;3.47;2.63;;;;;;;6.42;100.00;100282.41;5429595;26;19991;-72
2024/04/22 03:22:18;;;;;;;3.58;2.63;;;;;;;6.44;100.00;100273.09;5432293;26;20010;-76
2024/04/22 03:24:43;;;;;;;5.25;3.40;;;;;;;6.35;100.00;100249.56;5432625;26;19998;-74
2024/04/22 03:27:09;;;;;;;6.18;3.63;;;;;;;6.54;100.00;100270.19;5431908;26;20015;-74
2024/04/22 03:29:35;;;;;;;4.38;2.78;;;;;;;6.81;100.00;100303.13;5433855;26;19994;-75
2024/04/22 03:32:00;;;;;;;3.60;2.72;;;;;;;6.92;100.00;100296.84;5431428;26;19992;-78
2024/04/22 03:34:26;;;;;;;3.63;2.60;;;;;;;6.96;100.00;100290.19;5434652;26;20441;-75
2024/04/22 03:36:51;;;;;;;5.30;3.00;;;;;;;7.10;100.00;100296.88;5432067;26;19995;-75
2024/04/22 03:39:17;;;;;;;3.97;2.70;;;;;;;7.17;100.00;100299.72;5432328;26;20015;-80
2024/04/22 03:41:42;;;;;;;6.00;3.00;;;;;;;7.16;100.00;100309.09;5431994;26;19996;-78
2024/04/22 03:44:09;;;;;;;5.95;3.00;;;;;;;7.28;100.00;100311.38;5432370;26;20007;-76
2024/04/22 03:52:03;;;;;;;4.97;2.80;;;;;;;6.70;100.00;100281.19;5418977;26;20006;-74
2024/04/22 03:54:28;;;;;;;4.45;2.75;;;;;;;6.66;100.00;100285.31;5420445;26;19991;-75
2024/04/22 03:56:54;;;;;;;4.00;2.88;;;;;;;6.73;100.00;100317.25;5434106;26;20002;-74
2024/04/22 03:59:20;;;;;;;4.32;2.30;;;;;;;6.47;100.00;100322.84;5435650;26;20002;-76
2024/04/22 04:01:45;;;;;;;5.13;3.33;;;;;;;6.25;100.00;100319.97;5436027;26;20007;-79
2024/04/22 04:04:12;;;;;;;4.35;3.20;;;;;;;6.22;100.00;100323.28;5430853;26;19999;-73
2024/04/22 04:06:37;;;;;;;4.05;2.58;;;;;;;6.34;100.00;100333.25;5431902;26;20009;-73
2024/04/22 04:09:03;;;;;;;3.40;2.50;;;;;;;6.44;100.00;100334.63;5431527;26;20011;-75
2024/04/22 04:11:36;;;;;;;4.45;2.92;;;;;;;6.42;100.00;100314.03;5392667;26;20000;-79
2024/04/22 04:14:01;;;;;;;4.97;3.08;;;;;;;6.70;100.00;100355.59;5388642;26;20081;-76
2024/04/22 04:16:26;;;;;;;4.25;3.10;;;;;;;6.78;100.00;100357.75;5403995;26;20473;-72
2024/04/22 04:18:52;;;;;;;4.18;2.70;;;;;;;6.84;100.00;100349.50;5386321;26;20057;-74
2024/04/22 04:21:19;;;;;;;4.07;2.65;;;;;;;6.99;100.00;100351.03;5389220;26;20032;-78
2024/04/22 04:23:44;;;;;;;3.83;2.58;;;;;;;7.16;100.00;100355.31;5392871;26;20032;-74
2024/04/22 04:26:11;;;;;;;5.70;3.00;;;;;;;7.20;100.00;100354.69;5380800;26;19996;-73
2024/04/22 04:28:36;;;;;;;4.43;2.95;;;;;;;7.27;100.00;100349.00;5388407;26;20014;-73
2024/04/22 04:31:02;;;;;;;3.85;2.72;;;;;;;7.45;100.00;100373.81;5362275;26;20085;-74
2024/04/22 04:33:29;;;;;;;4.47;3.00;;;;;;;7.44;100.00;100369.50;5388049;26;20063;-73
2024/04/22 04:36:03;;;;;;;4.32;3.00;;;;;;;7.45;100.00;100369.56;5359797;26;20127;-73
2024/04/22 04:38:48;;;;;;;4.47;3.45;;;;;;;7.63;100.00;100383.19;5375260;26;20007;-74
2024/04/22 04:41:19;;;;;;;3.92;2.88;;;;;;;7.68;100.00;100394.59;5303205;26;20006;-73
2024/04/22 04:43:44;;;;;;;3.58;2.40;;;;;;;7.52;100.00;100367.28;5335969;26;20729;-73
2024/04/22 04:46:10;;;;;;;3.50;2.60;;;;;;;7.75;100.00;100406.91;5339949;26;20004;-75
2024/04/22 04:48:35;;;;;;;3.72;2.63;;;;;;;7.55;100.00;100352.91;5302186;26;20047;-73
2024/04/22 04:51:01;;;;;;;3.83;3.00;;;;;;;7.86;100.00;100410.00;5338790;26;19997;-74
2024/04/22 04:53:26;;;;;;;4.35;2.83;;;;;;;7.91;100.00;100404.28;5340802;26;20001;-73
2024/04/22 04:55:52;;;;;;;6.03;3.03;;;;;;;7.92;100.00;100406.03;5338055;26;20027;-74
2024/04/22 04:58:18;;;;;;;4.20;3.03;;;;;;;8.06;100.00;100422.09;5335482;26;20497;-74
2024/04/22 05:00:43;;;;;;;3.83;2.78;;;;;;;8.15;100.00;100434.50;5334403;26;20008;-74
2024/04/22 05:03:12;;;;;;;4.15;2.85;;;;;;;8.22;100.00;100420.22;5311240;26;20012;-73
2024/04/22 05:05:39;;;;;;;4.15;2.92;;;;;;;8.17;100.00;100417.44;5335832;26;20001;-76
2024/04/22 05:08:04;;;;;;;4.80;3.20;;;;;;;8.25;100.00;100425.50;5328128;26;20468;-74
2024/04/22 05:10:30;;;;;;;4.10;2.92;;;;;;;8.15;100.00;100434.50;5320794;26;20013;-70
2024/04/22 05:12:56;;;;;;;4.68;3.05;;;;;;;8.24;100.00;100434.91;5355498;26;20011;-73
2024/04/22 05:15:21;;;;;;;5.93;3.53;;;;;;;8.31;100.00;100422.31;5413046;26;20020;-74
2024/04/22 05:17:47;;;;;;;4.53;3.28;;;;;;;8.48;100.00;100438.56;5435971;26;20015;-72
2024/04/22 05:20:12;;;;;;;4.00;2.72;;;;;;;8.43;100.00;100441.75;5433139;26;20008;-72
2024/04/22 05:22:38;;;;;;;4.95;3.28;;;;;;;8.45;100.00;100448.66;5433797;26;20037;-77
2024/04/22 05:25:03;;;;;;;4.18;2.40;;;;;;;8.48;100.00;100443.72;5434215;26;19998;-74
2024/04/22 05:27:31;;;;;;;4.25;3.00;;;;;;;8.43;100.00;100436.59;5426378;26;20868;-77
2024/04/22 05:29:56;;;;;;;3.72;2.60;;;;;;;8.38;100.00;100409.81;5428407;26;19995;-72
2024/04/22 05:32:22;;;;;;;5.18;2.85;;;;;;;8.70;100.00;100446.41;5438167;26;20023;-75
2024/04/22 05:37:31;;;;;;;4.40;2.83;;;;;;;8.39;100.00;100378.13;5435771;26;20079;-73
2024/04/22 05:39:57;;;;;;;3.53;2.58;;;;;;;9.02;100.00;100470.13;5430994;26;20003;-74
2024/04/22 05:42:22;;;;;;;4.05;2.70;;;;;;;8.86;100.00;100442.81;5429791;26;20009;-75
2024/04/22 05:44:48;;;;;;;3.28;2.22;;;;;;;8.71;100.00;100416.41;5429082;26;20031;-76
2024/04/22 05:47:13;;;;;;;3.55;2.05;;;;;;;8.99;100.00;100476.84;5423377;26;20415;-75
2024/04/22 05:49:39;;;;;;;3.75;2.75;;;;;;;9.04;100.00;100478.78;5438806;26;20007;-76
2024/04/22 05:52:04;;;;;;;4.43;2.38;;;;;;;9.22;100.00;100489.00;5447081;26;20006;-76
2024/04/22 05:54:31;;;;;;;4.03;2.65;;;;;;;9.36;100.00;100478.41;5447523;26;20014;-74
2024/04/22 05:56:57;;;;;;;3.95;2.50;;;;;;;9.30;100.00;100486.75;5439606;26;20458;-77
2024/04/22 05:59:22;;;;;;;3.13;2.40;;;;;;;9.55;100.00;100496.38;5446185;26;20025;-74
2024/04/22 06:01:48;;;;;;;4.10;2.35;;;;;;;9.64;100.00;100492.44;5450056;26;20030;-72
2024/04/22 06:04:13;;;;;;;3.65;2.33;;;;;;;9.65;100.00;100509.66;5435176;26;19999;-73
2024/04/22 06:06:40;;;;;;;4.47;2.50;;;;;;;9.54;100.00;100512.69;5447258;26;20034;-75
2024/04/22 06:09:09;;;;;;;4.18;2.47;;;;;;;9.65;100.00;100504.50;5444517;26;20075;-73
2024/04/22 06:11:35;;;;;;;4.72;2.47;;;;;;;9.79;100.00;100511.09;5440631;26;20002;-75
2024/04/22 06:14:01;;;;;;;3.35;2.40;;;;;;;9.63;100.00;100507.03;5446731;26;20400;-74
2024/04/22 06:16:27;;;;;;;4.10;2.22;;;;;;;9.52;100.00;100493.69;5446705;26;20010;-74
2024/04/22 06:18:53;;;;;;;3.13;2.30;;;;;;;9.78;100.00;100511.03;5450048;26;20007;-73
2024/04/22 06:21:19;;;;;;;3.42;2.10;;;;;;;9.94;100.00;100523.72;5447457;26;20006;-78
2024/04/22 06:23:45;;;;;;;3.53;2.20;;;;;;;9.92;100.00;100524.47;5446052;26;20031;-75
2024/04/22 06:26:10;;;;;;;2.22;1.45;;;;;;;9.89;100.00;100540.72;5444391;26;20019;-79
2024/04/22 06:28:36;;;;;;;3.53;2.60;;;;;;;9.88;100.00;100508.91;5446759;26;20003;-75
2024/04/22 06:31:02;;;;;;;3.70;2.80;;;;;;;10.08;100.00;100518.25;5448743;26;20373;-73
2024/04/22 06:33:31;;;;;;;3.28;2.40;;;;;;;10.27;100.00;100527.56;5451242;26;20009;-74
2024/04/22 06:35:57;;;;;;;5.75;2.35;;;;;;;10.24;100.00;100522.31;5446808;26;20001;-73
2024/04/22 06:38:22;;;;;;;3.53;2.33;;;;;;;10.15;100.00;100499.59;5440828;26;19995;-71
2024/04/22 06:40:48;;;;;;;3.10;2.30;;;;;;;10.23;100.00;100494.75;5440944;26;20006;-74
2024/04/22 06:43:14;;;;;;;3.88;2.67;;;;;;;10.50;100.00;100547.47;5442860;26;20414;-70
2024/04/22 06:45:40;;;;;;;2.58;1.90;;;;;;;10.58;100.00;100562.34;5446465;26;20003;-73
2024/04/22 06:48:06;;;;;;;3.67;2.15;;;;;;;10.51;100.00;100564.69;5435835;26;20011;-74
2024/04/22 06:50:31;;;;;;;3.13;2.28;;;;;;;10.46;100.00;100570.50;5448765;26;20026;-70
2024/04/22 06:52:57;;;;;;;3.35;2.47;;;;;;;10.47;100.00;100570.56;5445806;26;20425;-71
2024/04/22 06:55:22;;;;;;;3.67;2.60;;;;;;;10.65;100.00;100556.59;5440095;26;20442;-72
2024/04/22 06:57:49;;;;;;;3.90;2.70;;;;;;;10.76;100.00;100570.78;5449956;26;20402;-77
2024/04/22 07:00:15;;;;;;;3.78;2.75;;;;;;;10.65;100.00;100556.59;5444097;26;20006;-75
2024/04/22 07:02:42;;;;;;;4.32;2.60;;;;;;;10.89;100.00;100572.16;5451519;26;20410;-75
2024/04/22 07:05:07;;;;;;;3.63;2.53;;;;;;;10.92;100.00;100573.97;5447511;26;20003;-74
2024/04/22 07:07:33;;;;;;;3.40;2.42;;;;;;;10.99;100.00;100574.25;5451000;26;20318;-73
2024/04/22 07:09:59;;;;;;;3.75;2.35;;;;;;;11.09;100.00;100569.41;5451043;26;20125;-75
2024/04/22 07:12:24;;;;;;;3.80;2.60;;;;;;;11.21;100.00;100569.84;5450843;26;20417;-74
2024/04/22 07:14:50;;;;;;;4.65;2.83;;;;;;;11.16;100.00;100561.97;5451046;26;20002;-77
2024/04/22 07:17:15;;;;;;;3.55;2.60;;;;;;;11.20;100.00;100559.47;5451852;26;20088;-74
2024/04/22 07:19:41;;;;;;;4.63;2.75;;;;;;;11.41;100.00;100580.91;5450680;26;20007;-79
2024/04/22 07:22:07;;;;;;;4.07;2.70;;;;;;;11.52;100.00;100585.59;5443462;26;19999;-75
2024/04/22 07:24:32;;;;;;;3.33;2.47;;;;;;;11.66;100.00;100576.56;5401540;26;20015;-76
2024/04/22 07:26:58;;;;;;;3.75;2.15;;;;;;;11.57;100.00;100589.22;5349872;26;20003;-74
2024/04/22 07:29:24;;;;;;;3.88;2.72;;;;;;;11.62;100.00;100595.41;5443881;26;20104;-72
2024/04/22 07:31:51;;;;;;;3.17;2.30;;;;;;;11.52;100.00;100573.53;5447666;26;20019;-73
2024/04/22 07:34:16;;;;;;;3.75;2.33;;;;;;;11.62;100.00;100582.47;5448222;26;20007;-72
2024/04/22 07:36:46;;;;;;;3.72;2.47;;;;;;;12.07;100.00;100597.81;5443553;26;20509;-76
2024/04/22 07:39:14;;;;;;;2.78;1.95;;;;;;;12.23;100.00;100593.16;5450109;26;20449;-76
2024/04/22 07:41:40;;;;;;;3.28;2.45;;;;;;;12.21;100.00;100584.44;5445614;26;20002;-75
2024/04/22 07:44:05;;;;;;;2.72;2.13;;;;;;;12.30;100.00;100602.88;5445841;26;20014;-76
2024/04/22 07:46:32;;;;;;;2.80;2.03;;;;;;;12.21;100.00;100592.22;5441500;26;20340;-75
2024/04/22 07:48:58;;;;;;;2.78;2.15;;;;;;;12.32;100.00;100613.28;5442170;26;19995;-78
2024/04/22 07:51:24;;;;;;;3.67;2.15;;;;;;;12.38;100.00;100600.53;5445902;26;20006;-76
2024/04/22 07:53:50;;;;;;;2.67;1.92;;;;;;;12.32;100.00;100566.69;5449357;26;20010;-75
2024/04/22 07:56:17;;;;;;;3.13;2.13;;;;;;;12.39;100.00;100602.28;5451097;26;19994;-75
2024/04/22 07:58:44;;;;;;;3.50;2.40;;;;;;;12.48;100.00;100593.94;5450476;26;19999;-73
2024/04/22 08:01:12;;;;;;;2.72;2.10;;;;;;;12.72;100.00;100610.22;5450032;26;20030;-78
2024/04/22 08:03:38;;;;;;;2.67;2.17;;;;;;;12.93;100.00;100609.09;5449867;26;20010;-78
2024/04/22 08:06:08;;;;;;;3.65;2.17;;;;;;;13.06;100.00;100608.63;5449524;26;20900;-77
2024/04/22 08:08:38;;;;;;;2.15;1.85;;;;;;;12.98;100.00;100615.28;5451542;26;20064;-74
2024/04/22 08:11:03;;;;;;;4.13;2.20;;;;;;;13.21;100.00;100617.69;5451387;26;20329;-77
2024/04/22 08:13:29;;;;;;;2.78;2.10;;;;;;;13.46;100.00;100628.75;5451256;26;20002;-76
2024/04/22 08:15:54;;;;;;;2.33;2.00;;;;;;;13.32;100.00;100634.44;5451533;26;19991;-77
2024/04/22 08:18:20;;;;;;;1.95;1.75;;;;;;;13.27;100.00;100618.75;5449062;26;20018;-77
2024/04/22 08:20:45;;;;;;;2.50;2.08;;;;;;;13.18;100.00;100591.66;5448839;26;20008;-77
2024/04/22 08:23:11;;;;;;;2.78;2.10;;;;;;;13.36;100.00;100636.25;5450784;26;19995;-76
2024/04/22 08:25:37;;;;;;;2.05;1.85;;;;;;;13.18;100.00;100591.66;5416941;26;19995;-75
2024/04/22 08:28:03;;;;;;;2.85;1.75;;;;;;;13.43;100.00;100614.00;5450155;26;20014;-74
2024/04/22 08:30:29;;;;;;;2.50;1.80;;;;;;;13.44;100.00;100600.19;5449277;26;20067;-75
2024/04/22 08:32:55;;;;;;;1.83;1.60;;;;;;;13.71;100.00;100632.94;5449775;26;19998;-76
2024/04/22 08:35:22;;;;;;;2.33;1.77;;;;;;;13.47;100.00;100600.31;5449467;26;20027;-73
2024/04/22 08:37:47;;;;;;;2.65;1.70;;;;;;;13.82;100.00;100635.78;5446091;26;19998;-77
2024/04/22 08:40:13;;;;;;;3.65;2.28;;;;;;;13.70;100.00;100625.97;5449904;26;20067;-75
2024/04/22 08:42:40;;;;;;;2.08;1.80;;;;;;;13.66;100.00;100632.78;5449304;26;20315;-76
2024/04/22 08:45:09;;;;;;;3.67;1.95;;;;;;;13.48;100.00;100607.22;5449500;26;20770;-76
2024/04/22 08:47:34;;;;;;;3.85;1.80;;;;;;;13.42;100.00;100627.78;5446947;26;19998;-77
2024/04/22 08:50:00;;;;;;;3.83;2.00;;;;;;;13.55;100.00;100592.72;5450422;26;19995;-74
2024/04/22 08:52:26;;;;;;;3.42;2.00;;;;;;;13.70;100.00;100594.84;5449398;26;20100;-80
2024/04/22 08:54:52;;;;;;;2.55;2.17;;;;;;;13.89;100.00;100620.44;5446947;26;20006;-76
2024/04/22 08:57:17;;;;;;;3.25;2.50;;;;;;;14.21;100.00;100637.66;5449368;26;20003;-76
2024/04/22 08:59:44;;;;;;;2.55;2.08;;;;;;;14.43;99.30;100625.19;5446911;26;20009;-73
2024/04/22 09:02:12;;;;;;;4.90;3.40;;;;;;;14.62;100.00;100629.09;5448624;26;20355;-78
2024/04/22 09:04:38;;;;;;;3.72;2.40;;;;;;;14.71;100.00;100622.41;5449470;26;19999;-75
2024/04/22 09:07:06;;;;;;;2.85;1.70;;;;;;;14.67;92.63;100605.00;5416514;26;20039;-77
2024/04/22 09:09:32;;;;;;;3.05;2.22;;;;;;;14.87;94.66;100620.16;5449271;26;19998;-75
2024/04/22 09:11:57;;;;;;;4.93;2.55;;;;;;;15.07;94.49;100611.91;5417125;26;20002;-76
2024/04/22 09:14:25;;;;;;;4.68;2.75;;;;;;;15.16;98.88;100601.69;5449090;26;19999;-75
2024/04/22 09:16:50;;;;;;;3.00;2.30;;;;;;;15.27;93.85;100594.13;5417865;26;20348;-77
2024/04/22 09:19:23;;;;;;;2.90;2.10;;;;;;;15.41;88.66;100615.19;5444975;26;20000;-79
2024/04/22 09:21:49;;;;;;;2.75;2.05;;;;;;;14.77;87.66;100576.63;5445069;26;20003;-75
2024/04/22 09:24:15;;;;;;;4.25;2.70;;;;;;;15.14;90.29;100624.16;5449202;26;20017;-80
2024/04/22 09:26:41;;;;;;;3.75;1.90;;;;;;;15.19;88.91;100604.38;5449639;26;19995;-74
2024/04/22 09:29:08;;;;;;;3.38;2.22;;;;;;;15.39;88.66;100616.88;5448770;26;19998;-78
2024/04/22 09:31:40;;;;;;;3.20;2.60;;;;;;;15.57;91.70;100605.94;5448656;26;20340;-74
2024/04/22 09:34:06;;;;;;;2.80;2.08;;;;;;;15.67;85.21;100615.66;5437569;26;20003;-75
2024/04/22 09:36:33;;;;;;;3.78;2.13;;;;;;;15.26;88.14;100575.00;5448664;26;20330;-74
2024/04/22 09:38:59;;;;;;;3.05;2.30;;;;;;;15.78;94.12;100621.94;5448357;26;20116;-76
2024/04/22 09:41:25;;;;;;;2.80;2.20;;;;;;;16.01;90.54;100613.69;5448438;26;20018;-75
2024/04/22 09:43:53;;;;;;;3.00;2.20;;;;;;;16.08;80.18;100567.81;5449691;26;19999;-75
2024/04/22 09:46:19;;;;;;;2.13;1.75;;;;;;;16.36;78.04;100595.13;5448285;26;19999;-77
2024/04/22 09:48:46;;;;;;;2.30;2.10;;;;;;;16.54;85.42;100588.47;5433275;26;20007;-76
2024/04/22 09:51:11;;;;;;;3.85;2.60;;;;;;;16.55;83.61;100583.28;5450464;26;19995;-78
2024/04/22 09:53:40;;;;;;;2.63;2.10;;;;;;;15.96;76.28;100553.75;5451893;26;20009;-74
2024/04/22 09:56:09;;;;;;;2.80;2.20;;;;;;;16.43;78.62;100580.50;5452248;26;20446;-77
2024/04/22 09:58:36;;;;;;;2.53;2.08;;;;;;;16.63;77.52;100586.84;5419966;26;19991;-77
2024/04/22 10:01:02;;;;;;;2.10;1.90;;;;;;;16.90;73.64;100585.47;5451697;26;20071;-79
2024/04/22 10:03:29;;;;;;;2.58;2.05;;;;;;;17.20;75.41;100593.72;5452040;26;20011;-81
2024/04/22 10:05:59;;;;;;;4.55;3.08;;;;;;;17.27;71.57;100582.47;5434501;26;20013;-84
2024/04/22 10:08:28;;;;;;;1.98;1.52;;;;;;;16.47;72.70;100579.69;5451636;26;20453;-76
2024/04/22 10:11:14;;;;;;;2.00;1.73;;;;;;;16.86;73.52;100586.31;5444566;26;20326;-79
2024/04/22 10:13:39;;;;;;;2.55;1.95;;;;;;;17.08;67.48;100565.72;5444100;26;20007;-79
2024/04/22 10:16:05;;;;;;;2.15;1.58;;;;;;;16.93;68.03;100574.25;5447908;26;19999;-81
2024/04/22 10:18:31;;;;;;;3.45;1.73;;;;;;;16.91;69.49;100548.16;5438415;26;20361;-77
2024/04/22 10:21:02;;;;;;;3.05;1.60;;;;;;;17.12;68.71;100565.78;5444861;26;19999;-78
2024/04/22 10:23:29;;;;;;;4.13;1.75;;;;;;;17.67;66.41;100582.00;5448317;26;19998;-79
2024/04/22 10:25:54;;;;;;;3.45;1.80;;;;;;;17.55;66.11;100583.63;5443245;26;20003;-80
2024/04/22 10:28:20;;;;;;;1.98;1.50;;;;;;;16.92;68.32;100568.16;5448193;26;20047;-79
2024/04/22 10:30:45;;;;;;;2.30;1.73;;;;;;;17.06;69.11;100568.34;5449056;26;20433;-78
2024/04/22 10:33:11;;;;;;;2.67;1.80;;;;;;;17.12;66.03;100568.41;5436200;26;20705;-81
2024/04/22 10:35:37;;;;;;;1.67;1.58;;;;;;;17.33;64.52;100576.44;5447220;26;20024;-78
2024/04/22 10:38:03;;;;;;;9.07;6.47;;;;;;;17.36;66.98;100581.69;5447485;26;20010;-80
2024/04/22 10:40:29;;;;;;;4.15;2.63;;;;;;;17.24;67.14;100552.00;5447359;26;20452;-77
2024/04/22 10:42:54;;;;;;;7.28;4.07;;;;;;;17.31;67.26;100568.63;5438754;26;20035;-77
2024/04/22 10:45:20;;;;;;;5.20;2.88;;;;;;;17.50;66.98;100567.06;5449104;26;20007;-80
2024/04/22 10:47:46;;;;;;;6.70;2.70;;;;;;;17.73;65.51;100572.50;5408261;26;20006;-79
2024/04/22 10:50:15;;;;;;;12.07;4.47;;;;;;;17.40;64.54;100586.09;5449130;26;20423;-79
2024/04/22 10:52:41;;;;;;;10.82;4.63;;;;;;;17.50;64.92;100585.34;5443448;26;20010;-80
2024/04/22 10:55:07;;;;;;;2.20;1.88;;;;;;;17.89;61.72;100565.66;5449312;26;20017;-80
2024/04/22 10:57:34;;;;;;;4.75;2.30;;;;;;;18.02;60.97;100537.97;5445710;26;20072;-78
2024/04/22 11:00:01;;;;;;;3.35;2.00;;;;;;;18.50;59.22;100566.13;5447163;26;20310;-78
2024/04/22 11:02:27;;;;;;;3.60;1.90;;;;;;;18.77;60.36;100573.25;5442250;26;20331;-79
2024/04/22 11:04:53;;;;;;;2.55;1.55;;;;;;;18.77;58.19;100565.41;5447337;26;20079;-78
2024/04/22 11:07:22;;;;;;;3.25;2.20;;;;;;;18.55;57.63;100575.75;5373679;26;20021;-81
2024/04/22 11:09:48;;;;;;;4.18;2.33;;;;;;;18.70;62.50;100563.63;5373462;26;20451;-81
2024/04/22 11:12:14;;;;;;;2.53;2.00;;;;;;;18.42;58.74;100561.72;5316894;26;20017;-78
2024/04/22 11:14:41;;;;;;;4.15;2.13;;;;;;;18.02;58.85;100563.19;5376802;26;20011;-77
2024/04/22 11:17:10;;;;;;;2.30;1.60;;;;;;;18.16;61.48;100577.25;5373924;26;20004;-79
2024/04/22 11:19:35;;;;;;;3.88;1.80;;;;;;;18.62;63.31;100570.53;5373248;26;20044;-80
2024/04/22 11:22:01;;;;;;;3.30;2.17;;;;;;;18.70;60.63;100559.25;5374983;26;20069;-81
2024/04/22 11:24:27;;;;;;;2.90;2.30;;;;;;;18.52;57.52;100543.50;5374699;26;20008;-79
2024/04/22 11:26:53;;;;;;;2.40;1.67;;;;;;;18.83;57.61;100548.84;5373899;26;20015;-76